createdAt,value
2019-02-22T00:00:43.894Z,71.46
2019-02-22T00:01:43.902Z,71.67
2019-02-22T00:02:43.873Z,71.26
2019-02-22T00:03:43.864Z,71.46
2019-02-22T00:04:43.870Z,71.26
2019-02-22T00:05:43.837Z,71.26
2019-02-22T00:06:43.826Z,71.67
2019-02-22T00:07:43.825Z,71.26
2019-02-22T00:08:43.812Z,71.26
2019-02-22T00:09:49.416Z,71.26
2019-02-22T00:10:44.784Z,71.87
2019-02-22T00:11:43.770Z,71.77
2019-02-22T00:12:43.818Z,71.87
2019-02-22T00:13:43.747Z,71.87
2019-02-22T00:14:43.740Z,71.87
2019-02-22T00:15:43.732Z,71.87
2019-02-22T00:16:43.718Z,71.87
2019-02-22T00:17:43.739Z,71.87
2019-02-22T00:18:43.693Z,71.87
2019-02-22T00:19:43.687Z,71.91
2019-02-22T00:20:43.669Z,72.07
2019-02-22T00:21:43.686Z,71.70
2019-02-22T00:22:43.716Z,71.77
2019-02-22T00:23:43.640Z,71.87
2019-02-22T00:24:43.625Z,71.77
2019-02-22T00:25:43.622Z,71.67
2019-02-22T00:26:43.624Z,71.87
2019-02-22T00:27:43.607Z,71.87
2019-02-22T00:28:43.580Z,71.87
2019-02-22T00:29:43.569Z,71.77
2019-02-22T00:30:43.561Z,71.87
2019-02-22T00:31:43.552Z,71.87
2019-02-22T00:32:43.554Z,71.77
2019-02-22T00:33:43.529Z,71.87
2019-02-22T00:34:43.541Z,71.77
2019-02-22T00:35:43.534Z,71.77
2019-02-22T00:36:43.499Z,71.67
2019-02-22T00:37:43.494Z,71.77
2019-02-22T00:41:00.917Z,71.46
2019-02-22T00:42:00.900Z,71.67
2019-02-22T00:43:00.943Z,71.67
2019-02-22T00:44:00.882Z,71.56
2019-02-22T00:45:00.868Z,71.26
2019-02-22T00:46:00.856Z,71.46
2019-02-22T00:47:00.844Z,71.77
2019-02-22T00:48:00.833Z,71.46
2019-02-22T00:49:00.849Z,71.33
2019-02-22T00:50:00.813Z,71.53
2019-02-22T00:51:00.798Z,71.15
2019-02-22T00:52:00.809Z,71.22
2019-02-22T00:53:00.787Z,71.26
2019-02-22T00:54:00.780Z,71.26
2019-02-22T00:55:00.774Z,71.46
2019-02-22T00:56:00.750Z,71.22
2019-02-22T00:57:00.733Z,71.26
2019-02-22T00:58:00.725Z,71.36
2019-02-22T00:59:00.723Z,71.36
2019-02-22T01:00:00.698Z,71.36
2019-02-22T01:01:00.706Z,71.53
2019-02-22T01:02:00.677Z,71.43
2019-02-22T01:03:00.670Z,71.67
2019-02-22T01:04:00.667Z,71.26
2019-02-22T01:05:00.641Z,71.46
2019-02-22T01:06:00.630Z,71.67
2019-02-22T01:07:00.619Z,71.77
2019-02-22T01:08:00.614Z,71.87
2019-02-22T01:09:00.634Z,71.87
2019-02-22T01:10:00.589Z,71.77
2019-02-22T01:11:00.574Z,71.87
2019-02-22T01:12:00.563Z,71.97
2019-02-22T01:13:00.554Z,71.97
2019-02-22T01:14:00.555Z,71.87
2019-02-22T01:15:00.534Z,71.97
2019-02-22T01:16:00.519Z,71.87
2019-02-22T01:17:00.516Z,71.87
2019-02-22T01:18:00.494Z,72.07
2019-02-22T01:19:00.502Z,71.67
2019-02-22T01:20:00.716Z,71.87
2019-02-22T01:21:00.460Z,71.87
2019-02-22T01:22:00.473Z,71.87
2019-02-22T01:23:00.446Z,71.77
2019-02-22T01:24:00.435Z,71.77
2019-02-22T01:25:00.483Z,71.87
2019-02-22T01:26:00.406Z,71.77
2019-02-22T01:27:00.399Z,71.87
2019-02-22T01:28:00.390Z,71.80
2019-02-22T01:29:00.375Z,71.97
2019-02-22T01:30:00.380Z,71.87
2019-02-22T01:31:00.358Z,71.97
2019-02-22T01:32:00.374Z,71.87
2019-02-22T01:33:00.333Z,71.77
2019-02-22T01:34:00.319Z,71.77
2019-02-22T01:35:00.353Z,71.97
2019-02-22T01:36:00.297Z,71.97
2019-02-22T01:37:00.280Z,72.21
2019-02-22T01:38:00.274Z,72.07
2019-02-22T01:39:00.259Z,72.41
2019-02-22T01:40:00.279Z,72.48
2019-02-22T01:41:00.238Z,72.38
2019-02-22T01:42:00.225Z,72.31
2019-02-22T01:43:00.220Z,72.41
2019-02-22T01:44:00.203Z,72.38
2019-02-22T01:45:00.323Z,72.41
2019-02-22T01:46:00.184Z,72.48
2019-02-22T01:47:00.173Z,72.62
2019-02-22T01:48:00.272Z,72.31
2019-02-22T01:49:00.154Z,72.31
2019-02-22T01:50:00.334Z,72.41
2019-02-22T01:51:00.131Z,72.41
2019-02-22T01:52:00.112Z,72.41
2019-02-22T01:53:00.113Z,72.17
2019-02-22T01:54:00.098Z,72.21
2019-02-22T01:55:00.165Z,72.62
2019-02-22T01:56:00.083Z,72.38
2019-02-22T01:57:00.066Z,72.52
2019-02-22T01:58:00.050Z,72.52
2019-02-22T01:59:00.034Z,72.38
2019-02-22T02:00:00.031Z,72.69
2019-02-22T02:01:00.025Z,72.31
2019-02-22T02:02:00.019Z,72.52
2019-02-22T02:02:59.987Z,72.58
2019-02-22T02:03:59.978Z,72.62
2019-02-22T02:04:59.969Z,72.79
2019-02-22T02:05:59.968Z,72.69
2019-02-22T02:06:59.965Z,72.58
2019-02-22T02:07:59.959Z,72.62
2019-02-22T02:08:59.919Z,72.72
2019-02-22T02:09:59.908Z,72.58
2019-02-22T02:10:59.912Z,72.58
2019-02-22T02:12:01.874Z,72.72
2019-02-22T02:12:59.877Z,72.79
2019-02-22T02:13:59.884Z,72.92
2019-02-22T02:14:59.852Z,73.03
2019-02-22T02:15:59.860Z,72.82
2019-02-22T02:16:59.840Z,73.23
2019-02-22T02:17:59.820Z,73.23
2019-02-22T02:18:59.807Z,73.13
2019-02-22T02:19:59.795Z,73.23
2019-02-22T02:20:59.782Z,73.44
2019-02-22T02:21:59.791Z,73.23
2019-02-22T02:22:59.763Z,73.44
2019-02-22T02:23:59.755Z,73.54
2019-02-22T02:24:59.750Z,73.54
2019-02-22T02:25:59.727Z,73.64
2019-02-22T02:26:59.728Z,73.84
2019-02-22T02:27:59.713Z,73.74
2019-02-22T02:28:59.695Z,74.25
2019-02-22T02:29:59.682Z,74.35
2019-02-22T02:30:59.692Z,74.15
2019-02-22T02:31:59.747Z,74.52
2019-02-22T02:32:59.647Z,74.63
2019-02-22T02:33:59.643Z,74.52
2019-02-22T02:34:59.625Z,74.73
2019-02-22T02:35:59.620Z,74.22
2019-02-22T02:36:59.616Z,74.32
2019-02-22T02:37:59.592Z,74.29
2019-02-22T02:38:59.582Z,74.42
2019-02-22T02:39:59.578Z,75.20
2019-02-22T02:41:09.864Z,74.73
2019-02-22T02:42:00.563Z,75.20
2019-02-22T02:42:59.536Z,74.49
2019-02-22T02:43:59.528Z,74.73
2019-02-22T02:44:59.511Z,74.29
2019-02-22T02:45:59.527Z,74.49
2019-02-22T02:46:59.501Z,74.63
2019-02-22T02:47:59.482Z,74.49
2019-02-22T02:48:59.480Z,74.59
2019-02-22T02:49:59.472Z,74.73
2019-02-22T02:50:59.446Z,74.73
2019-02-22T02:51:59.470Z,75.00
2019-02-22T02:52:59.432Z,75.13
2019-02-22T02:53:59.413Z,74.63
2019-02-22T02:54:59.402Z,74.63
2019-02-22T02:55:59.392Z,74.90
2019-02-22T02:56:59.385Z,74.90
2019-02-22T02:57:59.378Z,75.44
2019-02-22T02:58:59.395Z,74.22
2019-02-22T02:59:59.352Z,74.73
2019-02-22T03:00:59.333Z,74.42
2019-02-22T03:01:59.321Z,74.32
2019-02-22T03:02:59.324Z,74.73
2019-02-22T03:03:59.320Z,74.83
2019-02-22T03:04:59.304Z,74.63
2019-02-22T03:05:59.285Z,74.52
2019-02-22T03:06:59.269Z,74.93
2019-02-22T03:07:59.265Z,75.04
2019-02-22T03:08:59.246Z,75.04
2019-02-22T03:09:59.230Z,74.63
2019-02-22T03:10:59.228Z,74.73
2019-02-22T03:11:59.211Z,74.93
2019-02-22T03:12:59.208Z,74.42
2019-02-22T03:13:59.188Z,74.73
2019-02-22T03:14:59.181Z,74.63
2019-02-22T03:15:59.164Z,74.42
2019-02-22T03:16:59.153Z,74.73
2019-02-22T03:17:59.152Z,75.44
2019-02-22T03:18:59.129Z,75.34
2019-02-22T03:19:59.135Z,75.54
2019-02-22T03:20:59.121Z,75.48
2019-02-22T03:21:59.097Z,74.83
2019-02-22T03:22:59.095Z,75.54
2019-02-22T03:23:59.083Z,75.75
2019-02-22T03:24:59.070Z,75.37
2019-02-22T03:25:59.080Z,75.34
2019-02-22T03:26:59.039Z,75.37
2019-02-22T03:27:59.041Z,75.58
2019-02-22T03:28:59.019Z,75.78
2019-02-22T03:29:59.021Z,75.75
2019-02-22T03:30:59.009Z,75.75
2019-02-22T03:31:58.984Z,75.75
2019-02-22T03:32:58.972Z,75.54
2019-02-22T03:33:58.973Z,75.75
2019-02-22T03:34:58.958Z,75.75
2019-02-22T03:35:58.937Z,75.65
2019-02-22T03:36:58.943Z,75.75
2019-02-22T03:37:58.924Z,75.75
2019-02-22T03:38:58.916Z,75.89
2019-02-22T03:39:58.919Z,75.75
2019-02-22T03:40:58.882Z,75.75
2019-02-22T03:41:58.872Z,75.34
2019-02-22T03:42:58.856Z,75.24
2019-02-22T03:43:58.861Z,75.04
2019-02-22T03:44:58.834Z,74.83
2019-02-22T03:45:58.834Z,75.75
2019-02-22T03:46:58.817Z,75.41
2019-02-22T03:47:58.803Z,74.93
2019-02-22T03:48:58.805Z,75.75
2019-02-22T03:49:58.779Z,75.27
2019-02-22T03:50:58.768Z,75.65
2019-02-22T03:51:58.769Z,74.83
2019-02-22T03:52:58.747Z,75.13
2019-02-22T03:53:58.750Z,75.04
2019-02-22T03:54:58.721Z,74.83
2019-02-22T03:55:58.724Z,74.83
2019-02-22T03:56:58.700Z,75.85
2019-02-22T03:57:58.686Z,75.75
2019-02-22T03:58:58.689Z,75.04
2019-02-22T03:59:58.674Z,75.34
2019-02-22T04:00:58.666Z,75.54
2019-02-22T04:01:58.658Z,75.24
2019-02-22T04:02:58.636Z,75.44
2019-02-22T04:03:58.717Z,75.34
2019-02-22T04:04:58.612Z,75.54
2019-02-22T04:05:58.599Z,75.65
2019-02-22T04:06:58.585Z,75.54
2019-02-22T04:07:58.587Z,75.34
2019-02-22T04:08:58.565Z,75.95
2019-02-22T04:09:58.570Z,75.75
2019-02-22T04:10:58.556Z,75.65
2019-02-22T04:11:58.530Z,75.78
2019-02-22T04:12:58.519Z,75.54
2019-02-22T04:13:58.513Z,75.54
2019-02-22T04:14:58.577Z,75.54
2019-02-22T04:15:58.490Z,76.40
2019-02-22T04:16:58.479Z,75.37
2019-02-22T04:17:58.462Z,75.89
2019-02-22T04:18:58.449Z,76.19
2019-02-22T04:19:58.451Z,76.70
2019-02-22T04:20:58.432Z,76.40
2019-02-22T04:21:58.415Z,76.50
2019-02-22T04:22:58.414Z,76.60
2019-02-22T04:23:58.400Z,76.60
2019-02-22T04:24:58.397Z,76.46
2019-02-22T04:25:58.377Z,76.60
2019-02-22T04:26:58.358Z,76.56
2019-02-22T04:27:58.352Z,76.26
2019-02-22T04:28:58.335Z,76.81
2019-02-22T04:29:58.328Z,76.40
2019-02-22T04:30:58.326Z,76.90
2019-02-22T04:31:58.303Z,76.40
2019-02-22T04:32:58.293Z,76.40
2019-02-22T04:33:58.296Z,77.11
2019-02-22T04:34:58.268Z,77.11
2019-02-22T04:35:58.297Z,77.01
2019-02-22T04:36:58.260Z,77.08
2019-02-22T04:37:58.234Z,77.01
2019-02-22T04:38:58.246Z,77.22
2019-02-22T04:39:58.222Z,77.11
2019-02-22T04:40:58.226Z,77.01
2019-02-22T04:41:58.523Z,77.01
2019-02-22T04:42:58.181Z,76.90
2019-02-22T04:43:58.171Z,77.01
2019-02-22T04:44:58.167Z,76.70
2019-02-22T04:45:58.176Z,76.77
2019-02-22T04:46:58.133Z,76.67
2019-02-22T04:47:58.121Z,76.81
2019-02-22T04:48:58.139Z,77.11
2019-02-22T04:49:58.099Z,77.01
2019-02-22T04:50:58.115Z,76.90
2019-02-22T04:51:58.089Z,77.42
2019-02-22T04:52:58.068Z,77.42
2019-02-22T04:53:58.071Z,77.18
2019-02-22T04:54:58.074Z,77.22
2019-02-22T04:55:58.132Z,77.52
2019-02-22T04:56:58.024Z,77.52
2019-02-22T04:57:58.030Z,77.28
2019-02-22T04:58:58.009Z,77.62
2019-02-22T04:59:57.998Z,77.62
2019-02-22T05:00:58.003Z,77.42
2019-02-22T05:01:57.964Z,77.62
2019-02-22T05:02:57.976Z,77.93
2019-02-22T05:03:57.945Z,77.93
2019-02-22T05:04:57.932Z,77.93
2019-02-22T05:05:57.919Z,77.93
2019-02-22T05:06:57.928Z,77.72
2019-02-22T05:07:57.897Z,78.23
2019-02-22T05:08:57.885Z,78.54
2019-02-22T05:09:57.880Z,78.23
2019-02-22T05:10:57.862Z,78.95
2019-02-22T05:12:10.081Z,79.05
2019-02-22T05:12:58.840Z,78.75
2019-02-22T05:13:57.830Z,79.05
2019-02-22T05:14:57.817Z,78.95
2019-02-22T05:15:57.809Z,78.95
2019-02-22T05:16:57.813Z,78.85
2019-02-22T05:17:57.784Z,78.64
2019-02-22T05:18:57.806Z,78.95
2019-02-22T05:19:57.783Z,78.64
2019-02-22T05:20:57.749Z,78.75
2019-02-22T05:21:57.750Z,78.44
2019-02-22T05:23:03.762Z,78.34
2019-02-22T05:23:58.713Z,79.05
2019-02-22T05:24:57.708Z,78.85
2019-02-22T05:25:57.698Z,78.85
2019-02-22T05:26:57.734Z,78.44
2019-02-22T05:27:57.670Z,79.25
2019-02-22T05:28:57.662Z,79.16
2019-02-22T05:29:57.648Z,79.25
2019-02-22T05:30:57.643Z,78.75
2019-02-22T05:31:57.663Z,79.25
2019-02-22T05:32:57.637Z,79.05
2019-02-22T05:33:57.604Z,78.95
2019-02-22T05:34:57.594Z,78.85
2019-02-22T05:35:57.588Z,79.25
2019-02-22T05:36:57.569Z,79.16
2019-02-22T05:37:57.579Z,79.05
2019-02-22T05:38:57.549Z,79.05
2019-02-22T05:39:57.536Z,79.25
2019-02-22T05:40:57.529Z,79.36
2019-02-22T05:41:57.515Z,79.46
2019-02-22T05:42:57.515Z,79.36
2019-02-22T05:43:57.499Z,79.46
2019-02-22T05:44:57.481Z,79.46
2019-02-22T05:45:57.467Z,79.66
2019-02-22T05:47:00.443Z,79.66
2019-02-22T05:47:57.458Z,79.66
2019-02-22T05:48:57.439Z,79.66
2019-02-22T05:49:57.432Z,79.66
2019-02-22T05:50:57.412Z,79.77
2019-02-22T05:51:57.411Z,79.66
2019-02-22T05:52:57.414Z,79.66
2019-02-22T05:53:57.382Z,79.46
2019-02-22T05:54:57.375Z,79.66
2019-02-22T05:55:57.355Z,79.87
2019-02-22T05:56:57.371Z,80.07
2019-02-22T05:57:57.334Z,79.46
2019-02-22T05:58:57.335Z,79.57
2019-02-22T05:59:57.319Z,79.66
2019-02-22T06:00:57.297Z,79.66
2019-02-22T06:01:57.293Z,79.77
2019-02-22T06:02:57.281Z,79.80
2019-02-22T06:03:57.274Z,79.66
2019-02-22T06:04:57.259Z,79.80
2019-02-22T06:05:57.295Z,79.70
2019-02-22T06:06:57.259Z,80.01
2019-02-22T06:07:57.221Z,79.87
2019-02-22T06:08:57.219Z,79.70
2019-02-22T06:09:57.198Z,79.91
2019-02-22T06:10:57.186Z,80.32
2019-02-22T06:11:57.195Z,80.62
2019-02-22T06:12:57.165Z,80.52
2019-02-22T06:13:57.164Z,80.52
2019-02-22T06:14:57.141Z,80.01
2019-02-22T06:15:57.260Z,80.52
2019-02-22T06:16:57.123Z,79.91
2019-02-22T06:17:57.121Z,80.52
2019-02-22T06:18:57.113Z,81.03
2019-02-22T06:19:57.088Z,81.03
2019-02-22T06:20:57.072Z,81.03
2019-02-22T06:21:57.078Z,81.03
2019-02-22T06:22:57.055Z,80.83
2019-02-22T06:23:57.065Z,81.13
2019-02-22T06:24:57.027Z,81.03
2019-02-22T06:25:57.016Z,81.24
2019-02-22T06:26:57.003Z,81.03
2019-02-22T06:27:56.995Z,80.93
2019-02-22T06:28:56.998Z,81.03
2019-02-22T06:29:56.991Z,81.13
2019-02-22T06:30:57.086Z,81.13
2019-02-22T06:31:56.965Z,81.13
2019-02-22T06:32:56.938Z,81.44
2019-02-22T06:33:56.936Z,81.13
2019-02-22T06:34:56.926Z,81.65
2019-02-22T06:35:56.915Z,81.34
2019-02-22T06:37:01.769Z,81.34
2019-02-22T06:37:57.914Z,81.24
2019-02-22T06:38:56.873Z,81.54
2019-02-22T06:39:56.884Z,81.34
2019-02-22T06:40:56.865Z,81.44
2019-02-22T06:41:56.834Z,81.34
2019-02-22T06:42:56.829Z,81.74
2019-02-22T06:43:56.814Z,81.65
2019-02-22T06:44:56.824Z,81.34
2019-02-22T06:45:56.830Z,81.85
2019-02-22T06:46:56.794Z,81.88
2019-02-22T06:47:56.767Z,82.09
2019-02-22T06:48:56.775Z,82.29
2019-02-22T06:49:57.034Z,81.85
2019-02-22T06:50:56.737Z,81.74
2019-02-22T06:51:56.727Z,81.85
2019-02-22T06:52:56.711Z,82.15
2019-02-22T06:53:56.704Z,81.95
2019-02-22T06:54:56.688Z,82.26
2019-02-22T06:55:56.690Z,82.05
2019-02-22T06:56:56.674Z,81.74
2019-02-22T06:57:56.653Z,81.65
2019-02-22T06:58:56.643Z,82.05
2019-02-22T06:59:56.631Z,81.65
2019-02-22T07:00:56.644Z,81.95
2019-02-22T07:01:56.621Z,81.65
2019-02-22T07:02:56.616Z,81.74
2019-02-22T07:03:56.587Z,81.74
2019-02-22T07:04:56.578Z,81.74
2019-02-22T07:05:56.577Z,82.15
2019-02-22T07:06:56.559Z,82.15
2019-02-22T07:07:56.966Z,82.26
2019-02-22T07:08:56.555Z,82.26
2019-02-22T07:09:56.518Z,81.85
2019-02-22T07:10:56.535Z,82.26
2019-02-22T07:11:56.495Z,82.15
2019-02-22T07:12:57.237Z,82.15
2019-02-22T07:13:56.474Z,82.05
2019-02-22T07:14:56.469Z,82.26
2019-02-22T07:15:56.452Z,81.85
2019-02-22T07:16:56.451Z,81.81
2019-02-22T07:17:56.428Z,81.91
2019-02-22T07:18:56.419Z,82.01
2019-02-22T07:19:56.414Z,81.60
2019-02-22T07:20:56.394Z,82.12
2019-02-22T07:21:56.396Z,81.91
2019-02-22T07:22:56.372Z,81.91
2019-02-22T07:23:56.361Z,82.12
2019-02-22T07:24:56.356Z,82.01
2019-02-22T07:25:56.339Z,81.71
2019-02-22T07:26:56.339Z,81.60
2019-02-22T07:27:56.316Z,81.71
2019-02-22T07:28:56.304Z,81.60
2019-02-22T07:29:56.293Z,81.60
2019-02-22T07:30:56.291Z,81.60
2019-02-22T07:32:05.378Z,81.30
2019-02-22T07:32:57.278Z,80.99
2019-02-22T07:33:56.246Z,81.30
2019-02-22T07:34:56.240Z,81.30
2019-02-22T07:35:56.223Z,81.20
2019-02-22T07:36:56.240Z,81.71
2019-02-22T07:37:56.201Z,81.60
2019-02-22T07:38:56.190Z,81.46
2019-02-22T07:39:56.183Z,81.26
2019-02-22T07:40:56.168Z,81.91
2019-02-22T07:41:56.175Z,81.40
2019-02-22T07:43:07.522Z,81.67
2019-02-22T07:43:57.133Z,81.51
2019-02-22T07:44:56.129Z,81.71
2019-02-22T07:45:56.119Z,80.99
2019-02-22T07:46:56.117Z,81.71
2019-02-22T07:47:56.090Z,81.77
2019-02-22T07:48:56.080Z,81.91
2019-02-22T07:49:56.068Z,81.67
2019-02-22T07:50:58.117Z,81.71
2019-02-22T07:51:56.048Z,81.67
2019-02-22T07:52:56.055Z,80.85
2019-02-22T07:53:56.026Z,81.37
2019-02-22T07:54:56.011Z,81.05
2019-02-22T07:55:55.997Z,81.37
2019-02-22T07:56:55.989Z,80.44
2019-02-22T07:57:55.993Z,80.96
2019-02-22T07:58:55.964Z,80.71
2019-02-22T07:59:55.970Z,80.61
2019-02-22T08:00:55.943Z,80.20
2019-02-22T08:01:55.932Z,80.41
2019-02-22T08:02:55.939Z,80.41
2019-02-22T08:03:55.910Z,79.96
2019-02-22T08:04:55.913Z,80.16
2019-02-22T08:05:55.885Z,80.41
2019-02-22T08:06:55.877Z,79.96
2019-02-22T08:07:55.871Z,79.69
2019-02-22T08:08:55.947Z,80.20
2019-02-22T08:09:55.843Z,79.80
2019-02-22T08:10:55.835Z,79.75
2019-02-22T08:11:55.855Z,79.90
2019-02-22T08:12:55.807Z,79.66
2019-02-22T08:13:55.814Z,79.86
2019-02-22T08:14:55.784Z,80.27
2019-02-22T08:15:55.806Z,79.66
2019-02-22T08:16:55.763Z,79.55
2019-02-22T08:17:55.755Z,80.07
2019-02-22T08:19:01.686Z,79.25
2019-02-22T08:19:56.725Z,79.45
2019-02-22T08:20:55.718Z,79.66
2019-02-22T08:21:55.710Z,79.55
2019-02-22T08:22:55.693Z,79.55
2019-02-22T08:23:55.702Z,79.45
2019-02-22T08:24:55.671Z,79.04
2019-02-22T08:25:55.669Z,79.14
2019-02-22T08:26:55.649Z,79.14
2019-02-22T08:27:55.637Z,79.00
2019-02-22T08:28:55.685Z,79.04
2019-02-22T08:29:55.633Z,79.04
2019-02-22T08:30:55.613Z,79.35
2019-02-22T08:31:55.594Z,79.25
2019-02-22T08:32:55.601Z,79.35
2019-02-22T08:33:57.208Z,79.04
2019-02-22T08:34:55.558Z,79.25
2019-02-22T08:35:55.585Z,79.25
2019-02-22T08:36:55.634Z,79.04
2019-02-22T08:37:55.528Z,79.14
2019-02-22T08:38:55.705Z,78.94
2019-02-22T08:39:58.873Z,78.84
2019-02-22T08:40:55.495Z,79.11
2019-02-22T08:41:55.478Z,79.00
2019-02-22T08:42:55.478Z,78.60
2019-02-22T08:43:55.471Z,78.39
2019-02-22T08:44:55.474Z,78.70
2019-02-22T08:45:55.516Z,78.60
2019-02-22T08:46:55.425Z,77.98
2019-02-22T08:47:55.413Z,78.56
2019-02-22T08:48:55.448Z,78.77
2019-02-22T08:49:55.389Z,78.97
2019-02-22T08:50:55.378Z,78.36
2019-02-22T08:51:55.366Z,78.83
2019-02-22T08:52:55.360Z,77.71
2019-02-22T08:53:55.711Z,77.71
2019-02-22T08:54:55.740Z,77.55
2019-02-22T08:55:55.704Z,77.24
2019-02-22T08:56:55.307Z,77.34
2019-02-22T08:57:55.301Z,77.10
2019-02-22T08:58:55.286Z,77.00
2019-02-22T08:59:55.309Z,77.20
2019-02-22T09:00:55.265Z,76.39
2019-02-22T09:01:55.253Z,76.59
2019-02-22T09:02:55.256Z,76.59
2019-02-22T09:03:55.237Z,76.49
2019-02-22T09:04:55.242Z,76.59
2019-02-22T09:05:55.206Z,76.90
2019-02-22T09:06:55.197Z,77.00
2019-02-22T09:07:55.186Z,75.98
2019-02-22T09:08:55.177Z,76.08
2019-02-22T09:09:55.183Z,76.59
2019-02-22T09:11:00.585Z,76.28
2019-02-22T09:11:57.781Z,76.08
2019-02-22T09:12:55.129Z,75.67
2019-02-22T09:13:55.119Z,76.28
2019-02-22T09:14:55.108Z,76.69
2019-02-22T09:15:55.112Z,76.28
2019-02-22T09:16:55.084Z,75.57
2019-02-22T09:17:55.427Z,76.08
2019-02-22T09:18:55.065Z,75.27
2019-02-22T09:19:55.049Z,75.47
2019-02-22T09:20:55.049Z,75.37
2019-02-22T09:21:55.027Z,75.78
2019-02-22T09:22:55.031Z,75.33
2019-02-22T09:23:55.003Z,75.64
2019-02-22T09:24:54.994Z,74.82
2019-02-22T09:25:54.993Z,75.02
2019-02-22T09:26:54.978Z,75.33
2019-02-22T09:27:54.989Z,75.02
2019-02-22T09:28:55.645Z,75.64
2019-02-22T09:29:58.880Z,75.02
2019-02-22T09:30:54.937Z,75.13
2019-02-22T09:31:54.919Z,74.93
2019-02-22T09:32:54.921Z,74.93
2019-02-22T09:33:54.895Z,75.13
2019-02-22T09:34:54.890Z,74.99
2019-02-22T09:35:54.881Z,75.30
2019-02-22T09:36:54.870Z,75.02
2019-02-22T09:37:54.857Z,74.72
2019-02-22T09:38:54.838Z,73.97
2019-02-22T09:39:54.825Z,74.18
2019-02-22T09:40:54.872Z,74.18
2019-02-22T09:41:54.802Z,74.28
2019-02-22T09:42:54.802Z,74.28
2019-02-22T09:43:55.831Z,73.87
2019-02-22T09:44:54.769Z,73.54
2019-02-22T09:45:54.775Z,73.57
2019-02-22T09:46:54.745Z,73.67
2019-02-22T09:47:54.885Z,73.54
2019-02-22T09:48:54.723Z,73.33
2019-02-22T09:49:54.719Z,73.43
2019-02-22T09:50:54.704Z,72.72
2019-02-22T09:51:54.701Z,72.82
2019-02-22T09:52:54.682Z,73.02
2019-02-22T09:53:54.676Z,72.82
2019-02-22T09:54:54.659Z,72.96
2019-02-22T09:55:54.646Z,72.82
2019-02-22T09:56:54.650Z,72.72
2019-02-22T09:57:54.625Z,72.72
2019-02-22T09:58:54.612Z,72.72
2019-02-22T09:59:54.600Z,72.31
2019-02-22T10:00:54.594Z,72.31
2019-02-22T10:01:54.593Z,72.41
2019-02-22T10:02:54.567Z,72.41
2019-02-22T10:03:54.557Z,72.48
2019-02-22T10:04:55.673Z,72.08
2019-02-22T10:05:54.546Z,71.77
2019-02-22T10:06:54.552Z,71.33
2019-02-22T10:07:54.509Z,70.99
2019-02-22T10:08:54.501Z,70.25
2019-02-22T10:09:54.488Z,70.15
2019-02-22T10:10:54.475Z,69.03
2019-02-22T10:11:54.470Z,68.79
2019-02-22T10:12:54.468Z,67.65
2019-02-22T10:14:06.019Z,67.00
2019-02-22T10:14:55.429Z,66.91
2019-02-22T10:15:54.418Z,67.00
2019-02-22T10:16:54.410Z,67.21
2019-02-22T10:17:54.412Z,67.11
2019-02-22T10:18:54.386Z,66.91
2019-02-22T10:19:54.373Z,66.80
2019-02-22T10:20:54.361Z,67.14
2019-02-22T10:21:54.352Z,66.77
2019-02-22T10:22:54.352Z,67.07
2019-02-22T10:23:54.331Z,66.74
2019-02-22T10:24:54.335Z,66.74
2019-02-22T10:25:54.304Z,66.53
2019-02-22T10:26:54.293Z,66.23
2019-02-22T10:27:54.294Z,65.62
2019-02-22T10:28:54.288Z,66.63
2019-02-22T10:29:54.264Z,65.59
2019-02-22T10:30:54.258Z,65.48
2019-02-22T10:31:54.243Z,65.48
2019-02-22T10:32:54.243Z,65.69
2019-02-22T10:33:54.220Z,65.69
2019-02-22T10:34:54.210Z,65.56
2019-02-22T10:35:54.221Z,65.45
2019-02-22T10:36:54.186Z,64.14
2019-02-22T10:37:54.181Z,62.69
2019-02-22T10:38:54.157Z,62.05
2019-02-22T10:39:54.175Z,61.75
2019-02-22T10:40:54.137Z,61.85
2019-02-22T10:41:54.125Z,60.98
2019-02-22T10:42:54.127Z,60.72
2019-02-22T10:43:54.115Z,57.76
2019-02-22T10:44:54.092Z,57.10
2019-02-22T10:45:54.085Z,57.84
2019-02-22T10:46:54.078Z,58.45
2019-02-22T10:47:54.059Z,59.28
2019-02-22T10:48:54.058Z,59.51
2019-02-22T10:49:54.034Z,59.94
2019-02-22T10:50:54.025Z,60.58
2019-02-22T10:51:54.016Z,59.64
2019-02-22T10:53:01.792Z,59.54
2019-02-22T10:53:55.003Z,60.27
2019-02-22T10:54:53.979Z,60.23
2019-02-22T10:55:53.966Z,60.66
2019-02-22T10:56:53.957Z,61.51
2019-02-22T10:57:53.970Z,61.91
2019-02-22T10:58:53.958Z,62.01
2019-02-22T10:59:53.920Z,62.54
2019-02-22T11:00:53.909Z,62.98
2019-02-22T11:01:53.900Z,63.52
2019-02-22T11:02:53.899Z,64.33
2019-02-22T11:03:53.890Z,64.43
2019-02-22T11:04:53.867Z,65.68
2019-02-22T11:05:53.898Z,65.91
2019-02-22T11:06:53.842Z,65.91
2019-02-22T11:07:53.831Z,65.81
2019-02-22T11:08:53.840Z,65.41
2019-02-22T11:09:53.827Z,66.05
2019-02-22T11:10:53.835Z,66.86
2019-02-22T11:11:53.787Z,67.27
2019-02-22T11:12:53.780Z,67.47
2019-02-22T11:13:53.771Z,67.47
2019-02-22T11:14:53.762Z,67.16
2019-02-22T11:15:53.750Z,67.47
2019-02-22T11:16:53.727Z,67.80
2019-02-22T11:17:53.721Z,67.10
2019-02-22T11:18:53.714Z,67.50
2019-02-22T11:19:53.708Z,66.89
2019-02-22T11:20:53.682Z,67.19
2019-02-22T11:21:53.670Z,66.89
2019-02-22T11:22:53.658Z,67.10
2019-02-22T11:23:53.666Z,65.67
2019-02-22T11:24:53.650Z,65.80
2019-02-22T11:25:53.638Z,65.77
2019-02-22T11:26:53.618Z,66.00
2019-02-22T11:27:53.600Z,65.91
2019-02-22T11:28:53.592Z,65.91
2019-02-22T11:29:53.595Z,66.00
2019-02-22T11:30:53.567Z,65.80
2019-02-22T11:31:53.586Z,65.80
2019-02-22T11:32:53.544Z,65.60
2019-02-22T11:33:53.532Z,65.91
2019-02-22T11:34:53.526Z,65.91
2019-02-22T11:35:53.508Z,65.70
2019-02-22T11:36:53.500Z,65.30
2019-02-22T11:37:53.552Z,65.39
2019-02-22T11:38:53.477Z,64.99
2019-02-22T11:39:53.467Z,64.89
2019-02-22T11:40:53.454Z,63.43
2019-02-22T11:41:53.441Z,64.65
2019-02-22T11:42:53.447Z,63.74
2019-02-22T11:43:53.423Z,63.43
2019-02-22T11:44:53.439Z,61.88
2019-02-22T11:45:53.395Z,61.32
2019-02-22T11:46:53.389Z,61.55
2019-02-22T11:47:53.466Z,61.37
2019-02-22T11:48:53.357Z,62.11
2019-02-22T11:49:53.349Z,62.49
2019-02-22T11:50:53.352Z,62.41
2019-02-22T11:51:55.836Z,62.72
2019-02-22T11:52:53.314Z,62.41
2019-02-22T11:53:53.307Z,62.82
2019-02-22T11:54:53.288Z,63.26
2019-02-22T11:55:53.296Z,63.43
2019-02-22T11:56:53.271Z,63.57
2019-02-22T11:57:53.253Z,63.46
2019-02-22T11:58:53.244Z,63.67
2019-02-22T11:59:53.231Z,63.26
2019-02-22T12:00:53.237Z,63.23
2019-02-22T12:01:53.206Z,63.23
2019-02-22T12:02:53.214Z,63.74
2019-02-22T12:03:53.190Z,63.40
2019-02-22T12:04:53.187Z,63.02
2019-02-22T12:05:53.175Z,63.23
2019-02-22T12:06:53.149Z,63.54
2019-02-22T12:07:53.145Z,63.33
2019-02-22T12:08:53.200Z,63.54
2019-02-22T12:09:53.128Z,63.54
2019-02-22T12:10:53.121Z,63.84
2019-02-22T12:11:53.091Z,63.54
2019-02-22T12:12:53.078Z,63.23
2019-02-22T12:13:53.071Z,63.13
2019-02-22T12:14:53.067Z,62.21
2019-02-22T12:15:53.066Z,61.91
2019-02-22T12:16:53.033Z,61.47
2019-02-22T12:17:53.023Z,61.47
2019-02-22T12:18:53.009Z,60.56
2019-02-22T12:19:52.999Z,60.15
2019-02-22T12:20:53.011Z,61.14
2019-02-22T12:21:52.978Z,59.82
2019-02-22T12:22:52.971Z,58.47
2019-02-22T12:23:53.121Z,57.25
2019-02-22T12:24:52.941Z,56.74
2019-02-22T12:25:52.933Z,56.95
2019-02-22T12:26:52.935Z,56.85
2019-02-22T12:27:52.911Z,55.20
2019-02-22T12:28:52.897Z,54.33
2019-02-22T12:29:52.900Z,53.30
2019-02-22T12:30:52.874Z,52.39
2019-02-22T12:31:52.889Z,51.75
2019-02-22T12:32:52.849Z,51.35
2019-02-22T12:33:52.843Z,50.23
2019-02-22T12:34:52.829Z,51.47
2019-02-22T12:35:52.818Z,52.06
2019-02-22T12:36:52.818Z,50.43
2019-02-22T12:37:52.802Z,50.15
2019-02-22T12:38:52.785Z,50.86
2019-02-22T12:39:52.770Z,50.35
2019-02-22T12:40:52.769Z,49.95
2019-02-22T12:41:53.684Z,50.59
2019-02-22T12:42:52.740Z,50.99
2019-02-22T12:43:52.725Z,51.09
2019-02-22T12:45:02.462Z,51.62
2019-02-22T12:45:53.701Z,51.52
2019-02-22T12:46:52.720Z,51.60
2019-02-22T12:47:52.688Z,51.52
2019-02-22T12:48:52.686Z,52.23
2019-02-22T12:49:52.662Z,53.17
2019-02-22T12:50:52.648Z,53.19
2019-02-22T12:51:52.655Z,53.30
2019-02-22T12:52:52.623Z,53.50
2019-02-22T12:53:52.620Z,54.00
2019-02-22T12:54:52.603Z,53.80